Time;durP1;ratioP1;P1;durP2;ratioP2;P2;SDS_P1;SDS_P2;PMS_P1;PMS_P2;Temp;Humidity;BMP_temperature;BMP_pressure;BME280_temperature;BME280_humidity;BME280_pressure;Samples;Min_cycle;Max_cycle;Signal;HPM_P1;HPM_P2
2022/10/28 00:01:07;;;;;;;12.85;8.68;;;15.10;99.90;;;;;;5025450;28;20093;-81
2022/10/28 00:03:35;;;;;;;16.35;10.63;;;15.10;99.90;;;;;;5012460;28;20044;-81
2022/10/28 00:06:07;;;;;;;14.90;9.27;;;15.00;99.90;;;;;;4978143;28;20128;-81
2022/10/28 00:08:33;;;;;;;19.10;9.73;;;15.10;99.90;;;;;;4993026;28;20041;-81
2022/10/28 00:11:20;;;;;;;17.30;10.18;;;15.60;99.90;;;;;;5008162;28;20065;-81
2022/10/28 00:13:51;;;;;;;16.90;10.35;;;15.10;99.90;;;;;;4998673;28;20527;-81
2022/10/28 00:16:20;;;;;;;19.52;10.70;;;15.10;99.90;;;;;;4991840;28;20033;-81
2022/10/28 00:18:46;;;;;;;18.92;11.25;;;15.10;99.90;;;;;;4995687;28;20029;-81
2022/10/28 00:21:17;;;;;;;16.83;10.15;;;15.10;99.90;;;;;;4986071;28;20068;-80
2022/10/28 00:23:44;;;;;;;16.15;10.57;;;15.10;99.90;;;;;;5004612;28;20076;-80
2022/10/28 00:26:15;;;;;;;14.95;9.15;;;15.20;99.90;;;;;;5013196;28;20042;-79
2022/10/28 00:28:43;;;;;;;16.42;10.13;;;15.10;99.90;;;;;;4997033;28;20049;-80
2022/10/28 00:31:11;;;;;;;15.75;10.75;;;15.20;99.90;;;;;;5002242;28;20531;-81
2022/10/28 00:33:37;;;;;;;16.63;11.38;;;15.10;99.90;;;;;;4991492;28;20571;-81
2022/10/28 00:36:20;;;;;;;16.75;10.05;;;15.20;99.90;;;;;;4996898;28;20045;-80
2022/10/28 00:38:49;;;;;;;18.63;10.00;;;15.10;99.90;;;;;;4993941;28;20131;-80
2022/10/28 00:41:24;;;;;;;18.02;10.75;;;15.20;99.90;;;;;;4994684;28;20034;-81
2022/10/28 00:43:54;;;;;;;20.25;10.13;;;15.20;99.90;;;;;;5009408;28;20539;-81
2022/10/28 00:46:19;;;;;;;18.25;11.15;;;15.20;99.90;;;;;;5030382;28;20515;-81
2022/10/28 00:48:54;;;;;;;18.70;11.27;;;15.20;99.90;;;;;;5008737;28;20033;-80
2022/10/28 00:51:22;;;;;;;16.48;10.88;;;15.20;99.90;;;;;;4988058;28;20384;-80
2022/10/28 00:53:50;;;;;;;16.98;11.15;;;15.20;99.90;;;;;;4991463;28;20037;-80
2022/10/28 00:56:17;;;;;;;18.80;11.00;;;15.20;99.90;;;;;;5010967;28;20112;-81
2022/10/28 00:58:45;;;;;;;16.98;10.43;;;15.20;99.90;;;;;;4993479;28;20044;-81
2022/10/28 01:01:10;;;;;;;16.38;11.00;;;15.20;99.90;;;;;;5011165;28;20095;-81
2022/10/28 01:03:36;;;;;;;21.40;11.32;;;15.20;99.90;;;;;;5000194;28;20068;-80
2022/10/28 01:06:03;;;;;;;18.85;11.10;;;15.20;99.90;;;;;;4978249;28;20050;-80
2022/10/28 01:08:29;;;;;;;21.05;12.25;;;15.20;99.90;;;;;;5010305;28;20045;-81
2022/10/28 01:11:07;;;;;;;17.63;11.20;;;15.20;99.90;;;;;;4981288;28;20034;-79
2022/10/28 01:13:45;;;;;;;18.60;11.40;;;15.20;99.90;;;;;;5005171;28;20041;-79
2022/10/28 01:16:52;;;;;;;20.85;11.60;;;15.20;99.90;;;;;;4993765;28;20034;-80
2022/10/28 01:19:52;;;;;;;19.08;10.52;;;15.10;99.90;;;;;;4972100;28;20045;-81
2022/10/28 01:22:42;;;;;;;20.58;12.20;;;15.10;99.90;;;;;;5010879;28;20029;-81
2022/10/28 01:25:20;;;;;;;18.13;11.57;;;15.10;99.90;;;;;;4995061;28;20034;-81
2022/10/28 01:28:23;;;;;;;19.33;11.93;;;15.00;99.90;;;;;;5007469;28;20090;-81
2022/10/28 01:31:36;;;;;;;19.50;12.63;;;15.00;99.90;;;;;;4994232;28;20063;-81
2022/10/28 01:34:24;;;;;;;23.23;12.85;;;15.00;99.90;;;;;;4967775;28;20061;-80
2022/10/28 01:36:58;;;;;;;18.33;11.75;;;15.00;99.90;;;;;;5001123;28;20030;-81
2022/10/28 01:39:38;;;;;;;19.10;10.93;;;15.00;99.90;;;;;;5003920;28;20050;-80
2022/10/28 01:42:45;;;;;;;18.00;11.75;;;15.20;99.90;;;;;;5006812;28;20045;-79
2022/10/28 01:45:21;;;;;;;19.02;11.20;;;14.90;99.90;;;;;;4931054;29;20047;-81
2022/10/28 01:47:56;;;;;;;15.18;10.82;;;14.90;99.90;;;;;;4922043;28;20090;-80
2022/10/28 01:50:27;;;;;;;20.10;12.00;;;14.90;99.90;;;;;;4977802;28;20144;-81
2022/10/28 01:52:57;;;;;;;18.23;11.55;;;14.90;99.90;;;;;;4994187;28;20064;-80
2022/10/28 01:55:27;;;;;;;23.77;13.40;;;14.90;99.90;;;;;;4998683;28;20083;-81
2022/10/28 01:57:55;;;;;;;18.83;12.02;;;14.80;99.90;;;;;;5011834;28;20037;-81
2022/10/28 02:00:21;;;;;;;15.85;11.18;;;14.90;99.90;;;;;;4998004;28;20551;-79
2022/10/28 02:02:49;;;;;;;20.90;13.10;;;14.80;99.90;;;;;;5005625;28;20532;-80
2022/10/28 02:05:36;;;;;;;17.40;11.43;;;14.80;99.90;;;;;;5007070;28;20120;-80
2022/10/28 02:08:23;;;;;;;16.20;10.98;;;14.80;99.90;;;;;;5008153;28;20030;-80
2022/10/28 02:11:04;;;;;;;18.38;10.32;;;14.80;99.90;;;;;;4989396;28;20048;-80
2022/10/28 02:13:32;;;;;;;19.50;10.38;;;14.70;99.90;;;;;;5000419;28;20037;-80
2022/10/28 02:16:24;;;;;;;19.80;11.30;;;14.80;99.90;;;;;;5014073;28;20029;-81
2022/10/28 02:18:58;;;;;;;21.95;11.98;;;14.70;99.90;;;;;;4986380;28;20124;-79
2022/10/28 02:21:31;;;;;;;21.27;11.93;;;14.70;99.90;;;;;;4994985;28;20523;-81
2022/10/28 02:24:39;;;;;;;18.60;10.85;;;14.70;99.90;;;;;;4995961;28;20113;-81
2022/10/28 02:27:25;;;;;;;19.75;12.27;;;14.70;99.90;;;;;;4980323;28;20525;-81
2022/10/28 02:30:05;;;;;;;23.48;11.38;;;14.60;99.90;;;;;;4972267;28;20075;-80
2022/10/28 02:32:39;;;;;;;19.98;11.18;;;14.70;99.90;;;;;;5004830;28;20088;-80
2022/10/28 02:35:10;;;;;;;17.55;11.43;;;14.60;99.90;;;;;;5013171;28;20450;-78
2022/10/28 02:37:39;;;;;;;15.55;9.70;;;14.60;99.90;;;;;;5009438;28;20444;-80
2022/10/28 02:40:11;;;;;;;17.05;11.40;;;14.60;99.90;;;;;;5013681;28;20029;-80
2022/10/28 02:42:58;;;;;;;17.20;11.70;;;14.60;99.90;;;;;;5016912;28;20056;-80
2022/10/28 02:45:38;;;;;;;22.48;13.25;;;14.60;99.90;;;;;;5010632;28;20041;-81
2022/10/28 02:48:13;;;;;;;17.60;11.70;;;14.60;99.90;;;;;;4991915;28;20505;-80
2022/10/28 02:50:45;;;;;;;18.98;12.00;;;14.60;99.90;;;;;;4998290;28;20037;-80
2022/10/28 02:53:28;;;;;;;17.17;11.95;;;14.60;99.90;;;;;;5007301;28;20026;-79
2022/10/28 02:55:57;;;;;;;17.85;12.05;;;14.60;99.90;;;;;;4993023;28;20041;-81
2022/10/28 02:58:23;;;;;;;22.00;11.77;;;14.60;99.90;;;;;;5007183;28;20049;-80
2022/10/28 03:00:50;;;;;;;18.13;11.68;;;14.60;99.90;;;;;;5004632;28;20126;-81
2022/10/28 03:03:15;;;;;;;18.38;11.68;;;14.60;99.90;;;;;;4989550;28;20057;-80
2022/10/28 03:05:41;;;;;;;22.98;12.15;;;14.70;99.90;;;;;;4998022;28;20525;-81
2022/10/28 03:08:07;;;;;;;20.15;12.15;;;14.70;99.90;;;;;;4977293;28;20038;-81
2022/10/28 03:10:32;;;;;;;21.02;12.40;;;14.70;99.90;;;;;;4995716;28;20096;-80
2022/10/28 03:12:58;;;;;;;19.40;11.88;;;14.70;99.90;;;;;;4974339;28;20397;-80
2022/10/28 03:15:24;;;;;;;21.63;14.25;;;14.70;99.90;;;;;;5007954;28;20049;-81
2022/10/28 03:17:49;;;;;;;24.98;13.35;;;14.70;99.90;;;;;;5007704;28;20053;-80
2022/10/28 03:20:15;;;;;;;22.55;12.45;;;14.70;99.90;;;;;;4986910;28;20467;-80
2022/10/28 03:22:44;;;;;;;21.27;12.02;;;14.70;99.90;;;;;;4992478;28;20099;-80
2022/10/28 03:25:09;;;;;;;20.02;12.93;;;14.70;99.90;;;;;;4992898;28;20025;-80
2022/10/28 03:27:39;;;;;;;19.92;12.02;;;14.70;99.90;;;;;;4976983;28;20037;-80
2022/10/28 03:30:05;;;;;;;21.45;12.75;;;14.70;99.90;;;;;;4993453;28;20056;-80
2022/10/28 03:32:31;;;;;;;16.83;11.48;;;14.70;99.90;;;;;;4971406;28;20037;-80
2022/10/28 03:34:57;;;;;;;18.40;12.10;;;14.70;99.90;;;;;;4976939;28;20159;-80
2022/10/28 03:37:22;;;;;;;17.08;11.32;;;14.70;99.90;;;;;;4993454;28;20131;-79
2022/10/28 03:39:48;;;;;;;20.83;12.00;;;14.70;99.90;;;;;;4993748;28;20048;-80
2022/10/28 03:42:14;;;;;;;20.92;12.70;;;14.70;99.90;;;;;;4983066;28;20041;-79
2022/10/28 03:44:39;;;;;;;20.88;13.05;;;14.70;99.90;;;;;;4993841;28;20041;-81
2022/10/28 03:47:05;;;;;;;20.27;12.10;;;14.60;99.90;;;;;;4991319;28;20033;-81
2022/10/28 03:49:31;;;;;;;23.40;12.30;;;14.60;99.90;;;;;;4996446;23;20107;-80
2022/10/28 03:51:56;;;;;;;18.83;12.98;;;14.70;99.90;;;;;;5011605;28;20049;-81
2022/10/28 03:54:22;;;;;;;21.98;13.05;;;14.60;99.90;;;;;;5012708;28;20045;-79
2022/10/28 03:56:48;;;;;;;21.35;12.55;;;14.60;99.90;;;;;;5015214;28;20933;-81
2022/10/28 03:59:13;;;;;;;15.23;12.23;;;14.60;99.90;;;;;;5012810;28;20060;-81
2022/10/28 04:01:39;;;;;;;21.02;14.23;;;14.60;99.90;;;;;;4999922;28;20049;-81
2022/10/28 04:04:05;;;;;;;17.80;12.32;;;14.60;99.90;;;;;;5014747;28;20041;-80
2022/10/28 04:06:30;;;;;;;19.98;12.60;;;14.60;99.90;;;;;;5015561;28;20044;-81
2022/10/28 04:08:56;;;;;;;21.05;13.15;;;14.50;99.90;;;;;;5019479;28;20037;-81
2022/10/28 04:11:22;;;;;;;21.65;13.50;;;14.50;99.90;;;;;;5013186;28;20030;-80
2022/10/28 04:13:48;;;;;;;16.65;12.95;;;14.50;99.90;;;;;;5016116;28;20458;-79
2022/10/28 04:16:13;;;;;;;22.25;13.60;;;14.50;99.90;;;;;;4995334;28;20092;-82
2022/10/28 04:18:39;;;;;;;21.83;13.88;;;14.40;99.90;;;;;;5011478;28;20041;-80
2022/10/28 04:21:05;;;;;;;22.05;13.13;;;14.40;99.90;;;;;;4996139;28;20137;-80
2022/10/28 04:23:30;;;;;;;18.95;11.68;;;14.40;99.90;;;;;;5019096;28;20064;-80
2022/10/28 04:25:56;;;;;;;24.23;14.05;;;14.40;99.90;;;;;;4993577;28;20048;-81
2022/10/28 04:28:23;;;;;;;21.25;11.60;;;14.40;99.90;;;;;;5010007;28;20037;-81
2022/10/28 04:30:49;;;;;;;22.73;13.38;;;14.30;99.90;;;;;;4998061;28;20264;-82
2022/10/28 04:33:15;;;;;;;19.27;12.25;;;14.30;99.90;;;;;;5011286;28;20056;-80
2022/10/28 04:35:43;;;;;;;21.40;13.77;;;14.30;99.90;;;;;;5010077;28;20049;-78
2022/10/28 04:38:10;;;;;;;23.02;13.90;;;14.30;99.90;;;;;;5014137;28;20033;-81
2022/10/28 04:40:36;;;;;;;20.70;13.00;;;14.30;99.90;;;;;;5014445;28;20053;-81
2022/10/28 04:43:01;;;;;;;23.88;12.93;;;14.30;99.90;;;;;;5012554;28;20043;-79
2022/10/28 04:45:27;;;;;;;23.88;15.73;;;14.20;99.90;;;;;;4996211;28;20459;-81
2022/10/28 04:48:02;;;;;;;23.38;13.20;;;14.30;99.90;;;;;;4996726;28;20035;-79
2022/10/28 04:50:28;;;;;;;21.20;13.63;;;14.30;99.90;;;;;;5015369;28;20034;-81
2022/10/28 04:52:53;;;;;;;22.77;13.52;;;14.30;99.90;;;;;;4994138;28;20026;-81
2022/10/28 04:55:20;;;;;;;21.05;14.52;;;14.30;99.90;;;;;;4980919;28;20550;-82
2022/10/28 04:57:56;;;;;;;21.10;13.63;;;14.30;99.90;;;;;;4997287;28;20386;-81
2022/10/28 05:00:23;;;;;;;19.30;13.10;;;14.30;99.90;;;;;;5034066;28;20041;-80
2022/10/28 05:02:49;;;;;;;30.13;15.80;;;14.30;99.90;;;;;;5015076;28;20052;-81
2022/10/28 05:05:15;;;;;;;26.65;14.82;;;14.40;99.90;;;;;;5015421;28;20132;-82
2022/10/28 05:07:40;;;;;;;24.98;13.85;;;14.30;99.90;;;;;;4997059;28;20056;-81
2022/10/28 05:10:07;;;;;;;23.77;15.10;;;14.30;99.90;;;;;;5037159;28;20052;-81
2022/10/28 05:12:32;;;;;;;19.88;12.68;;;14.30;99.90;;;;;;5017655;28;20115;-82
2022/10/28 05:14:58;;;;;;;19.45;13.57;;;14.30;99.90;;;;;;4994262;28;20493;-83
2022/10/28 05:17:23;;;;;;;21.98;12.93;;;14.30;99.90;;;;;;4992749;28;20029;-79
2022/10/28 05:19:49;;;;;;;25.90;14.38;;;14.30;99.90;;;;;;4976705;28;20037;-77
2022/10/28 05:22:15;;;;;;;26.52;14.98;;;14.30;99.90;;;;;;4986073;28;20067;-79
2022/10/28 05:24:40;;;;;;;24.52;15.07;;;14.30;99.90;;;;;;4993877;28;20605;-78
2022/10/28 05:27:06;;;;;;;24.08;14.88;;;14.30;99.90;;;;;;5009525;28;20118;-79
2022/10/28 05:29:32;;;;;;;23.55;13.68;;;14.20;99.90;;;;;;5011439;28;20113;-76
2022/10/28 05:31:58;;;;;;;25.00;15.18;;;14.20;99.90;;;;;;5010425;28;20116;-78
2022/10/28 05:34:24;;;;;;;29.13;15.27;;;14.20;99.90;;;;;;4993166;28;20083;-79
2022/10/28 05:36:49;;;;;;;25.67;15.25;;;14.20;99.90;;;;;;5005542;28;20030;-80
2022/10/28 05:39:16;;;;;;;23.58;14.15;;;14.20;99.90;;;;;;4992965;28;20037;-81
2022/10/28 05:41:42;;;;;;;26.40;15.15;;;14.20;99.90;;;;;;5014243;28;20029;-79
2022/10/28 05:44:07;;;;;;;26.75;14.77;;;14.20;99.90;;;;;;4981685;28;20652;-79
2022/10/28 05:46:33;;;;;;;20.98;14.32;;;14.20;99.90;;;;;;5020337;28;20661;-78
2022/10/28 05:48:59;;;;;;;25.40;13.60;;;14.20;99.90;;;;;;5011962;28;20045;-79
2022/10/28 05:51:24;;;;;;;27.25;14.10;;;14.20;99.90;;;;;;4979748;28;20496;-78
2022/10/28 05:53:50;;;;;;;24.30;14.95;;;14.20;99.90;;;;;;4991868;28;20558;-78
2022/10/28 05:56:17;;;;;;;23.15;14.25;;;14.20;99.90;;;;;;4999734;28;20037;-79
2022/10/28 05:58:42;;;;;;;25.02;14.77;;;14.20;99.90;;;;;;5011381;28;20116;-79
2022/10/28 06:01:08;;;;;;;22.15;14.52;;;14.20;99.90;;;;;;4998367;28;20255;-78
2022/10/28 06:03:34;;;;;;;25.20;15.40;;;14.20;99.90;;;;;;5008341;28;20041;-78
2022/10/28 06:06:00;;;;;;;27.00;15.07;;;14.20;99.90;;;;;;5001519;28;20041;-78
2022/10/28 06:08:26;;;;;;;23.05;14.40;;;14.20;99.90;;;;;;4992956;28;20037;-78
2022/10/28 06:10:53;;;;;;;24.50;14.43;;;14.20;99.90;;;;;;5008769;28;20097;-77
2022/10/28 06:13:19;;;;;;;23.92;14.30;;;14.20;99.90;;;;;;5017107;28;20111;-79
2022/10/28 06:15:56;;;;;;;21.02;14.65;;;14.20;99.90;;;;;;5016421;28;20037;-80
2022/10/28 06:18:23;;;;;;;23.92;14.70;;;14.20;99.90;;;;;;5033838;28;20467;-78
2022/10/28 06:20:56;;;;;;;24.80;13.73;;;14.20;99.90;;;;;;4999121;28;20045;-80
2022/10/28 06:23:22;;;;;;;26.20;12.57;;;14.20;99.90;;;;;;4998967;28;20060;-81
2022/10/28 06:25:49;;;;;;;23.15;14.50;;;14.20;99.90;;;;;;5011316;28;20136;-78
2022/10/28 06:28:15;;;;;;;24.48;14.63;;;14.20;99.90;;;;;;5009010;28;20680;-78
2022/10/28 06:30:40;;;;;;;21.98;14.90;;;14.20;99.90;;;;;;5010437;28;20104;-79
2022/10/28 06:33:06;;;;;;;23.65;13.30;;;14.20;99.90;;;;;;5007656;28;20030;-80
2022/10/28 06:35:32;;;;;;;22.05;13.63;;;14.20;99.90;;;;;;5006725;28;20060;-79
2022/10/28 06:37:57;;;;;;;19.50;13.02;;;14.20;99.90;;;;;;5017419;28;20049;-80
2022/10/28 06:40:24;;;;;;;20.70;13.05;;;14.20;99.90;;;;;;4990263;28;20036;-79
2022/10/28 06:42:57;;;;;;;17.83;12.95;;;14.20;99.90;;;;;;5008980;28;20056;-79
2022/10/28 06:45:23;;;;;;;24.80;14.10;;;14.30;99.90;;;;;;4979526;28;20025;-79
2022/10/28 06:47:53;;;;;;;22.83;12.70;;;14.30;99.90;;;;;;5002547;28;20044;-78
2022/10/28 06:50:18;;;;;;;20.77;11.75;;;14.30;99.90;;;;;;5015798;28;20040;-79
2022/10/28 06:52:44;;;;;;;29.92;13.38;;;14.30;99.90;;;;;;5017957;28;20041;-80
2022/10/28 06:55:10;;;;;;;19.23;12.30;;;14.30;99.90;;;;;;5018811;28;20065;-78
2022/10/28 06:57:35;;;;;;;21.95;14.30;;;14.30;99.90;;;;;;5012168;28;20037;-80
2022/10/28 07:00:01;;;;;;;22.27;13.20;;;14.30;99.90;;;;;;4987581;28;20034;-80
2022/10/28 07:02:27;;;;;;;22.73;12.98;;;14.30;99.90;;;;;;5019991;28;20042;-80
2022/10/28 07:04:53;;;;;;;25.77;13.57;;;14.30;99.90;;;;;;5002410;28;20404;-80
2022/10/28 07:07:19;;;;;;;20.73;12.90;;;14.30;99.90;;;;;;4994317;28;20409;-80
2022/10/28 07:09:44;;;;;;;20.88;12.00;;;14.30;99.90;;;;;;4994344;28;20071;-79
2022/10/28 07:12:10;;;;;;;21.33;13.20;;;14.30;99.90;;;;;;5020259;28;20049;-79
2022/10/28 07:14:36;;;;;;;19.88;11.68;;;14.40;99.90;;;;;;5007887;28;20513;-77
2022/10/28 07:17:01;;;;;;;20.42;11.45;;;14.40;99.90;;;;;;5011315;28;20432;-79
2022/10/28 07:19:27;;;;;;;21.73;12.48;;;14.40;99.90;;;;;;4989152;28;20128;-79
2022/10/28 07:21:53;;;;;;;24.05;12.93;;;14.40;99.90;;;;;;4994044;28;20033;-78
2022/10/28 07:24:18;;;;;;;21.15;11.15;;;14.40;99.90;;;;;;5014658;28;20064;-79
2022/10/28 07:26:48;;;;;;;22.98;11.30;;;14.50;99.90;;;;;;4970350;28;20056;-78
2022/10/28 07:29:14;;;;;;;17.48;11.05;;;14.50;99.90;;;;;;5004148;28;20087;-78
2022/10/28 07:31:39;;;;;;;18.58;10.65;;;14.50;99.90;;;;;;5010675;28;20050;-78
2022/10/28 07:34:05;;;;;;;18.65;10.95;;;14.60;99.90;;;;;;5025161;28;20040;-78
2022/10/28 07:36:31;;;;;;;23.10;10.45;;;14.60;99.90;;;;;;4993482;28;21904;-80
2022/10/28 07:38:57;;;;;;;15.77;10.00;;;14.70;99.90;;;;;;5012525;28;20529;-81
2022/10/28 07:41:23;;;;;;;16.73;9.32;;;14.70;99.90;;;;;;5000549;28;20041;-83
2022/10/28 07:43:48;;;;;;;16.10;9.10;;;14.80;99.90;;;;;;5021005;28;20045;-79
2022/10/28 07:46:15;;;;;;;20.08;9.85;;;14.90;99.90;;;;;;4991205;28;20124;-80
2022/10/28 07:48:41;;;;;;;16.75;9.57;;;15.00;99.90;;;;;;4992826;28;20127;-80
2022/10/28 07:51:09;;;;;;;14.57;8.70;;;15.00;99.90;;;;;;5000458;28;20073;-80
2022/10/28 07:53:35;;;;;;;20.40;8.93;;;15.10;99.90;;;;;;5010522;28;20033;-80
2022/10/28 07:56:08;;;;;;;19.77;10.73;;;15.10;99.90;;;;;;5032940;28;20635;-81
2022/10/28 07:58:35;;;;;;;23.30;9.85;;;15.20;99.90;;;;;;5012090;28;20524;-82
2022/10/28 08:01:03;;;;;;;12.70;8.80;;;15.30;99.90;;;;;;4994961;28;20047;-80
2022/10/28 08:03:29;;;;;;;20.63;10.23;;;15.30;99.90;;;;;;5025804;28;20030;-80
2022/10/28 08:06:06;;;;;;;18.48;9.60;;;15.30;99.90;;;;;;4999880;28;20083;-79
2022/10/28 08:08:32;;;;;;;15.90;9.43;;;15.40;99.90;;;;;;5007563;28;20029;-79
2022/10/28 08:10:58;;;;;;;16.42;9.43;;;15.40;99.90;;;;;;5009051;28;20029;-80
2022/10/28 08:13:24;;;;;;;18.88;9.55;;;15.40;99.90;;;;;;5014381;28;20032;-80
2022/10/28 08:15:55;;;;;;;20.27;9.90;;;15.50;99.90;;;;;;5011538;28;20073;-80
2022/10/28 08:18:21;;;;;;;19.83;9.38;;;15.60;99.90;;;;;;4998255;28;20128;-81
2022/10/28 08:20:48;;;;;;;16.73;9.27;;;15.70;99.90;;;;;;5001909;28;20125;-77
2022/10/28 08:23:14;;;;;;;14.80;9.13;;;15.70;99.90;;;;;;5011172;28;20136;-81
2022/10/28 08:25:50;;;;;;;17.33;9.32;;;15.80;99.90;;;;;;5010187;28;20708;-81
2022/10/28 08:28:16;;;;;;;23.75;9.43;;;15.80;99.90;;;;;;5012741;28;20049;-80
2022/10/28 08:30:42;;;;;;;16.45;9.48;;;15.90;99.90;;;;;;5014890;28;20044;-80
2022/10/28 08:33:08;;;;;;;14.65;8.02;;;16.00;99.90;;;;;;5012352;28;20049;-80
2022/10/28 08:35:36;;;;;;;19.58;9.02;;;16.00;99.90;;;;;;5012770;28;20452;-80
2022/10/28 08:38:03;;;;;;;18.95;9.35;;;16.00;99.90;;;;;;4998483;28;20065;-80
2022/10/28 08:40:56;;;;;;;15.82;7.93;;;16.10;99.90;;;;;;5010562;28;20335;-80
2022/10/28 08:43:24;;;;;;;16.67;8.20;;;16.10;99.90;;;;;;4960241;28;20046;-81
2022/10/28 08:46:10;;;;;;;19.15;8.65;;;16.10;99.90;;;;;;5016155;28;20033;-79
2022/10/28 08:48:36;;;;;;;14.55;8.07;;;16.10;99.90;;;;;;5015147;28;20065;-78
2022/10/28 08:51:05;;;;;;;15.90;7.72;;;16.20;99.90;;;;;;4992646;28;20461;-80
2022/10/28 08:53:40;;;;;;;18.15;8.38;;;16.20;99.90;;;;;;5017406;28;20048;-80
2022/10/28 08:56:32;;;;;;;18.25;8.45;;;16.20;99.90;;;;;;5015373;28;20057;-80
2022/10/28 08:59:00;;;;;;;13.90;7.93;;;16.20;99.90;;;;;;4996103;28;20044;-80
2022/10/28 09:01:37;;;;;;;14.13;7.82;;;16.20;99.90;;;;;;5019856;28;20045;-79
2022/10/28 09:04:15;;;;;;;12.77;7.80;;;16.20;99.90;;;;;;5014795;28;20029;-78
2022/10/28 09:06:40;;;;;;;11.50;7.63;;;16.20;99.90;;;;;;5013631;28;20029;-82
2022/10/28 09:09:17;;;;;;;20.00;8.35;;;16.30;99.90;;;;;;5015817;28;20091;-81
2022/10/28 09:12:10;;;;;;;13.95;8.13;;;16.30;99.90;;;;;;5016027;28;20045;-81
2022/10/28 09:14:57;;;;;;;15.23;9.18;;;16.30;99.90;;;;;;5015187;28;20044;-80
2022/10/28 09:17:34;;;;;;;19.73;8.57;;;16.30;99.90;;;;;;5005868;28;20072;-80
2022/10/28 09:20:14;;;;;;;17.27;7.40;;;16.30;99.90;;;;;;5008375;28;20071;-81
2022/10/28 09:22:53;;;;;;;13.60;8.02;;;16.30;99.90;;;;;;5016075;28;20068;-80
2022/10/28 09:25:38;;;;;;;17.48;8.10;;;16.30;99.90;;;;;;5010317;28;20033;-81
2022/10/28 09:28:28;;;;;;;15.95;8.52;;;16.30;99.90;;;;;;5011213;28;20135;-79
2022/10/28 09:31:06;;;;;;;17.83;8.48;;;16.30;99.90;;;;;;4991214;28;20457;-82
2022/10/28 09:33:55;;;;;;;18.80;8.15;;;16.30;99.90;;;;;;5012186;28;20295;-81
2022/10/28 09:36:27;;;;;;;13.18;8.13;;;16.40;99.90;;;;;;5001560;28;20042;-82
2022/10/28 09:38:56;;;;;;;18.00;9.25;;;16.40;99.90;;;;;;4996031;28;20049;-82
2022/10/28 09:41:32;;;;;;;17.27;8.68;;;16.40;99.90;;;;;;5007111;28;20049;-80
2022/10/28 09:44:36;;;;;;;19.48;8.40;;;16.50;99.90;;;;;;5018934;28;20068;-81
2022/10/28 09:47:11;;;;;;;18.77;8.35;;;16.50;99.90;;;;;;5014477;28;20128;-80
2022/10/28 09:49:38;;;;;;;16.52;7.95;;;16.60;99.90;;;;;;5036997;22;20048;-58
2022/10/28 09:52:13;;;;;;;19.13;9.25;;;16.60;99.90;;;;;;5073858;28;20028;-57
2022/10/28 09:54:47;;;;;;;18.55;8.70;;;16.60;99.90;;;;;;5070172;28;20463;-60
2022/10/28 09:57:12;;;;;;;14.52;8.60;;;16.70;99.90;;;;;;5077761;28;20035;-59
2022/10/28 09:59:38;;;;;;;16.63;8.40;;;16.70;99.90;;;;;;5079391;28;20057;-59
2022/10/28 10:02:04;;;;;;;18.50;8.45;;;16.70;99.90;;;;;;5076925;28;20072;-57
2022/10/28 10:04:30;;;;;;;18.30;8.55;;;16.80;99.90;;;;;;5078748;28;20507;-58
2022/10/28 10:07:09;;;;;;;18.30;7.88;;;16.80;99.90;;;;;;5062498;28;20043;-59
2022/10/28 10:09:37;;;;;;;15.07;8.00;;;16.90;99.90;;;;;;5079511;28;20601;-59
2022/10/28 10:12:11;;;;;;;21.55;8.20;;;16.90;99.90;;;;;;5059508;28;20048;-59
2022/10/28 10:14:36;;;;;;;;;;;17.00;99.90;;;;;;5074715;28;20043;-58
2022/10/28 10:17:08;;;;;;;14.68;7.88;;;17.00;99.90;;;;;;5077457;28;19916;-59
2022/10/28 10:20:01;;;;;;;14.80;8.30;;;17.20;99.90;;;;;;5073798;28;20056;-59
2022/10/28 10:22:42;;;;;;;17.08;9.15;;;17.30;99.90;;;;;;5081637;28;20075;-58
2022/10/28 10:25:16;;;;;;;20.65;9.48;;;17.50;99.90;;;;;;5074765;28;20087;-59
2022/10/28 10:27:57;;;;;;;16.00;7.28;;;17.70;99.90;;;;;;5054173;28;20036;-58
2022/10/28 10:30:43;;;;;;;13.15;7.75;;;17.80;99.90;;;;;;5060767;28;20036;-59
2022/10/28 10:33:24;;;;;;;17.10;7.35;;;18.00;99.90;;;;;;5058211;28;20037;-58
2022/10/28 10:35:56;;;;;;;18.10;8.43;;;18.10;99.90;;;;;;5052484;28;21147;-59
2022/10/28 10:38:22;;;;;;;14.05;7.75;;;18.20;99.90;;;;;;5047507;28;20441;-59
2022/10/28 10:40:50;;;;;;;24.83;7.60;;;18.20;99.90;;;;;;5072084;28;20032;-59
2022/10/28 10:43:32;;;;;;;16.92;7.15;;;18.20;99.90;;;;;;5078262;28;20043;-59
2022/10/28 10:45:59;;;;;;;17.98;7.72;;;18.20;99.90;;;;;;5076586;28;20119;-59
2022/10/28 10:48:26;;;;;;;17.63;8.68;;;18.30;99.90;;;;;;5048272;28;20047;-59
2022/10/28 10:50:53;;;;;;;18.42;8.05;;;18.40;99.90;;;;;;5079180;28;20028;-59
2022/10/28 10:53:24;;;;;;;14.75;7.75;;;18.40;99.90;;;;;;5047110;28;20113;-59
2022/10/28 10:56:00;;;;;;;17.10;8.52;;;18.40;99.90;;;;;;5073211;28;20482;-59
2022/10/28 10:58:36;;;;;;;18.27;8.38;;;18.50;99.90;;;;;;5076591;28;20036;-65
2022/10/28 11:01:04;;;;;;;13.45;7.20;;;18.70;99.90;;;;;;5084076;28;20042;-59
2022/10/28 11:03:47;;;;;;;16.75;6.80;;;18.90;99.90;;;;;;5082781;28;20039;-59
2022/10/28 11:06:25;;;;;;;14.68;7.90;;;19.10;99.90;;;;;;5060097;28;20044;-59
2022/10/28 11:09:01;;;;;;;15.27;6.40;;;19.30;99.90;;;;;;5077610;28;20383;-59
2022/10/28 11:11:38;;;;;;;18.60;7.35;;;19.30;99.90;;;;;;5054535;28;20111;-58
2022/10/28 11:14:12;;;;;;;11.75;6.57;;;19.40;99.90;;;;;;5076770;28;20059;-59
2022/10/28 11:16:46;;;;;;;15.98;7.18;;;19.40;99.90;;;;;;5080496;28;20076;-60
2022/10/28 11:19:28;;;;;;;22.95;8.00;;;19.40;99.90;;;;;;5063578;28;20079;-58
2022/10/28 11:22:09;;;;;;;14.82;6.72;;;19.50;99.90;;;;;;5035279;28;20044;-56
2022/10/28 11:24:37;;;;;;;16.67;6.97;;;19.50;99.90;;;;;;5073295;28;20040;-60
2022/10/28 11:27:09;;;;;;;11.77;6.72;;;19.50;99.90;;;;;;5082337;28;20655;-60
2022/10/28 11:29:35;;;;;;;12.48;6.65;;;19.50;99.90;;;;;;5072914;28;20479;-60
2022/10/28 11:32:18;;;;;;;12.75;5.97;;;19.50;99.90;;;;;;5081155;28;20040;-60
2022/10/28 11:35:05;;;;;;;13.70;6.22;;;19.70;99.90;;;;;;5064663;28;20086;-60
2022/10/28 11:37:49;;;;;;;15.30;6.80;;;19.80;99.90;;;;;;5058482;28;20597;-59
2022/10/28 11:40:40;;;;;;;17.17;6.72;;;19.90;99.90;;;;;;5056081;28;20036;-58
2022/10/28 11:43:22;;;;;;;14.65;7.80;;;19.90;99.90;;;;;;5036393;28;20194;-59
2022/10/28 11:46:29;;;;;;;14.95;6.57;;;20.00;99.90;;;;;;5049038;28;20513;-59
2022/10/28 11:49:22;;;;;;;14.07;6.85;;;20.00;99.90;;;;;;5049193;28;20056;-59
2022/10/28 11:52:11;;;;;;;13.40;6.43;;;20.00;99.90;;;;;;5077947;28;20040;-60
2022/10/28 11:55:04;;;;;;;13.40;6.68;;;20.00;99.90;;;;;;5057103;28;20305;-59
2022/10/28 11:57:32;;;;;;;17.35;6.78;;;19.90;99.90;;;;;;5053756;28;20048;-60
2022/10/28 12:00:35;;;;;;;12.88;6.35;;;19.90;99.90;;;;;;5054666;28;20053;-59
2022/10/28 12:03:31;;;;;;;16.35;7.63;;;19.80;99.90;;;;;;5091563;28;20055;-59
2022/10/28 12:06:34;;;;;;;15.45;6.03;;;19.70;99.90;;;;;;5077185;28;20066;-59
2022/10/28 12:09:18;;;;;;;21.55;7.20;;;19.70;99.90;;;;;;5059082;28;20044;-59
2022/10/28 12:11:56;;;;;;;13.75;6.25;;;19.60;99.90;;;;;;5079957;28;20032;-57
2022/10/28 12:14:50;;;;;;;13.15;6.03;;;19.60;99.90;;;;;;5085948;28;20399;-59
2022/10/28 12:17:21;;;;;;;17.02;7.10;;;19.60;99.90;;;;;;5077072;28;20047;-58
2022/10/28 12:20:15;;;;;;;24.65;8.88;;;19.50;99.90;;;;;;5090056;28;20074;-59
2022/10/28 12:22:49;;;;;;;15.88;6.00;;;19.50;99.90;;;;;;5071765;28;20119;-59
2022/10/28 12:25:22;;;;;;;12.85;6.57;;;19.40;99.90;;;;;;5081081;28;20216;-59
2022/10/28 12:27:50;;;;;;;16.35;7.00;;;19.50;99.90;;;;;;5052247;28;20440;-59
2022/10/28 12:30:35;;;;;;;23.98;7.00;;;19.50;99.90;;;;;;5079794;28;20048;-59
2022/10/28 12:33:08;;;;;;;18.63;6.68;;;19.50;99.90;;;;;;5071093;28;20046;-59
2022/10/28 12:35:39;;;;;;;13.77;6.82;;;19.50;99.90;;;;;;5068872;28;20566;-59
2022/10/28 12:38:28;;;;;;;13.90;6.35;;;19.50;99.90;;;;;;5052216;28;20035;-59
2022/10/28 12:41:26;;;;;;;24.52;8.00;;;19.60;99.90;;;;;;5071031;28;20443;-59
2022/10/28 12:44:11;;;;;;;16.95;6.50;;;19.60;99.90;;;;;;5070586;28;20118;-58
2022/10/28 12:47:18;;;;;;;19.35;7.15;;;19.60;99.90;;;;;;5083868;28;20063;-59
2022/10/28 12:50:04;;;;;;;13.77;6.13;;;19.60;99.90;;;;;;5043747;28;20052;-59
2022/10/28 12:52:48;;;;;;;16.38;6.30;;;19.60;99.90;;;;;;5067138;28;20048;-59
2022/10/28 12:55:24;;;;;;;15.45;7.32;;;19.60;99.90;;;;;;5089379;28;20505;-59
2022/10/28 12:58:03;;;;;;;13.95;6.55;;;19.70;99.90;;;;;;5059246;28;20438;-59